Webcam Flughafen St.Gallen-Altenrhein

Live-Bilder und Zeitraffer LSZR / ACH.

 

Live aus Altenrhein
LIVE
LSZR 261350Z VRB02KT CAVOK 16/05 Q1034 NOSIG RMK L
Zeitraffer heute
2018-09-26 00:14:32
LSZR 252150Z AUTO VRB03KT CAVOK 06/04 Q1035
Zeitraffer gestern
2018-09-25 00:14:00
LSZR 242150Z AUTO 11003KT CAVOK 07/04 Q1035
Zeitraffer vor 3 Tagen
2018-09-23 00:14:23
LSZR 222150Z AUTO VRB01KT 9999 -RA OVC060 15/13 Q1021